Terminal Aerodrome Forecast
Issued by NWS Hastings, NE

Home | Current Version | Previous Version | Text Only | Print | Product List | Glossary On
Versions: 1 2 3 4 5 6 7 8 9 10 11 12 13 14 15 16 17 18 19 20
000
FTUS43 KGID 230754 AAA
TAFGRI
TAF AMD
KGRI 230754Z 2308/2406 27004KT 6SM BR SCT015
      TEMPO 2308/2312 3SM BR OVC015
     FM231400 31007KT 3SM BR SCT015
     FM231600 33008KT P6SM SCT028
     FM231900 36008KT P6SM SCT035
     FM240300 VRB06KT P6SM BKN015=

USA.gov is the U.S. government's official web portal to all federal, state and local government web resources and services.